Time;durP1;ratioP1;P1;durP2;ratioP2;P2;SDS_P1;SDS_P2;PMS_P1;PMS_P2;Temp;Humidity;BMP_temperature;BMP_pressure;BME280_temperature;BME280_humidity;BME280_pressure;Samples;Min_cycle;Max_cycle;Signal;HPM_P1;HPM_P2
2021/12/23 00:02:12;;;;;;;1860.90;791.12;;;;;;;-2.88;75.09;97212.76;1726537;80;21047;-82
2021/12/23 00:04:38;;;;;;;908.47;542.72;;;;;;;-3.03;75.00;97204.64;1723970;81;21005;-81
2021/12/23 00:07:04;;;;;;;1999.90;983.87;;;;;;;-3.10;75.19;97207.92;1732397;80;20967;-81
2021/12/23 00:10:01;;;;;;;1115.10;498.07;;;;;;;-3.08;75.45;97209.15;1752980;80;20944;-81
2021/12/23 00:11:57;;;;;;;832.05;441.55;;;;;;;-3.06;75.30;97205.63;1741986;80;20988;-82
2021/12/23 00:14:24;;;;;;;1021.20;573.20;;;;;;;-3.15;75.01;97202.71;1743486;80;20991;-82
2021/12/23 00:17:06;;;;;;;893.90;364.15;;;;;;;-3.23;75.22;97203.11;1738581;80;21008;-82
2021/12/23 00:24:36;;;;;;;25.40;22.52;;;;;;;-3.55;74.67;97192.45;1721490;80;21386;-82
2021/12/23 00:27:02;;;;;;;1999.90;867.40;;;;;;;-3.68;75.19;97181.61;1725636;81;21004;-82
2021/12/23 00:29:28;;;;;;;1587.73;714.90;;;;;;;-3.70;75.72;97175.80;1732705;80;20993;-82
2021/12/23 00:31:54;;;;;;;1237.35;668.92;;;;;;;-3.68;75.78;97175.71;1736354;80;21052;-82
2021/12/23 00:34:20;;;;;;;574.70;340.95;;;;;;;-3.66;75.78;97170.92;1712963;82;21004;-82
2021/12/23 00:36:46;;;;;;;392.37;233.45;;;;;;;-3.71;75.30;97170.34;1738497;80;21370;-82
2021/12/23 00:39:14;;;;;;;141.00;69.17;;;;;;;-3.80;75.22;97169.50;1726876;80;21061;-82
2021/12/23 00:41:42;;;;;;;275.73;147.17;;;;;;;-3.87;75.11;97169.89;1738227;81;21000;-82
2021/12/23 00:44:07;;;;;;;435.60;189.85;;;;;;;-3.99;74.97;97167.03;1737670;80;20996;-82
2021/12/23 00:46:34;;;;;;;167.62;66.67;;;;;;;-4.07;75.04;97165.73;1727457;80;20977;-82
2021/12/23 00:48:59;;;;;;;89.95;33.88;;;;;;;-4.15;75.04;97167.83;1737851;81;20993;-82
2021/12/23 00:51:26;;;;;;;338.92;130.32;;;;;;;-4.25;74.78;97169.52;1734987;81;21032;-82
2021/12/23 00:53:54;;;;;;;41.30;15.28;;;;;;;-4.39;74.98;97169.37;1737862;80;20998;-82
2021/12/23 00:56:20;;;;;;;878.75;339.23;;;;;;;-4.49;75.11;97165.59;1743580;80;20977;-82
2021/12/23 00:58:45;;;;;;;240.10;83.70;;;;;;;-4.59;75.23;97159.28;1741452;80;20994;-82
2021/12/23 01:01:11;;;;;;;135.80;53.98;;;;;;;-4.67;75.39;97163.91;1738000;81;21006;-82
2021/12/23 01:03:37;;;;;;;33.42;31.00;;;;;;;-4.76;75.45;97161.32;1731601;80;21017;-82
2021/12/23 01:06:03;;;;;;;5.40;3.83;;;;;;;-4.80;75.95;97154.75;1727899;80;21061;-81
2021/12/23 01:08:29;;;;;;;59.33;38.73;;;;;;;-4.75;75.99;97154.53;1747285;80;21064;-80
2021/12/23 01:10:57;;;;;;;7.17;4.37;;;;;;;-4.71;76.42;97154.80;1728399;80;21033;-80
2021/12/23 01:13:28;;;;;;;4.65;4.12;;;;;;;-4.65;76.57;97154.06;1727523;80;21028;-80
2021/12/23 01:16:03;;;;;;;3.90;3.60;;;;;;;-4.60;76.21;97147.50;1742437;80;20977;-80
2021/12/23 01:18:32;;;;;;;4.78;4.37;;;;;;;-4.63;76.00;97145.94;1729429;80;21004;-80
2021/12/23 01:21:16;;;;;;;5.33;4.53;;;;;;;-4.75;75.96;97134.25;1736169;80;21047;-81
2021/12/23 01:23:38;;;;;;;4.42;4.00;;;;;;;-4.75;76.29;97143.13;1703257;81;21050;-81
2021/12/23 01:26:01;;;;;;;7.70;4.00;;;;;;;-4.75;76.50;97141.41;1733804;79;21038;-80
2021/12/23 01:28:27;;;;;;;4.35;3.65;;;;;;;-4.75;76.27;97135.08;1744211;80;22033;-81
2021/12/23 01:30:53;;;;;;;4.30;3.90;;;;;;;-4.81;76.23;97131.56;1729287;80;21005;-80
2021/12/23 01:33:18;;;;;;;4.17;3.77;;;;;;;-4.85;76.21;97135.13;1728613;80;21084;-80
2021/12/23 01:35:50;;;;;;;3.70;3.40;;;;;;;-4.88;76.16;97132.29;1732240;80;21514;-80
2021/12/23 01:38:14;;;;;;;3.72;3.42;;;;;;;-4.88;76.06;97140.34;1736001;80;21108;-80
2021/12/23 01:40:40;;;;;;;3.75;3.55;;;;;;;-4.94;75.97;97130.02;1734344;81;20988;-80
2021/12/23 01:43:06;;;;;;;3.65;3.40;;;;;;;-5.00;75.83;97120.16;1722480;80;21093;-80
2021/12/23 01:45:33;;;;;;;3.75;3.47;;;;;;;-5.07;75.70;97118.77;1728710;80;21022;-81
2021/12/23 01:47:59;;;;;;;3.75;3.37;;;;;;;-5.13;75.80;97108.92;1703373;81;20969;-80
2021/12/23 01:50:27;;;;;;;4.62;4.28;;;;;;;-5.18;75.92;97112.11;1737670;80;21083;-80
2021/12/23 01:52:58;;;;;;;3.80;3.50;;;;;;;-5.21;75.89;97104.20;1729644;80;21458;-80
2021/12/23 01:55:24;;;;;;;3.77;3.40;;;;;;;-5.24;75.89;97107.29;1733036;80;21492;-80
2021/12/23 01:57:50;;;;;;;4.22;3.83;;;;;;;-5.31;75.92;97104.66;1719592;80;21146;-81
2021/12/23 02:00:17;;;;;;;5.03;3.77;;;;;;;-5.36;75.92;97101.52;1729113;80;21257;-81
2021/12/23 02:02:43;;;;;;;4.10;3.80;;;;;;;-5.41;76.12;97101.70;1724377;81;21432;-80
2021/12/23 02:05:09;;;;;;;4.35;3.95;;;;;;;-5.44;76.26;97100.13;1744095;80;21141;-80
2021/12/23 02:07:36;;;;;;;3.77;3.47;;;;;;;-5.45;76.40;97092.59;1732012;80;21437;-80
2021/12/23 02:10:03;;;;;;;5.05;4.65;;;;;;;-5.44;76.67;97091.70;1729806;80;21098;-80
2021/12/23 02:12:29;;;;;;;4.95;4.28;;;;;;;-5.42;76.39;97096.70;1741594;80;21032;-80
2021/12/23 02:14:55;;;;;;;4.55;4.15;;;;;;;-5.47;76.33;97088.05;1736268;80;21564;-81
2021/12/23 02:17:20;;;;;;;4.22;3.83;;;;;;;-5.50;76.51;97082.67;1735137;80;20952;-81
2021/12/23 02:19:46;;;;;;;5.08;3.75;;;;;;;-5.52;76.50;97085.72;1733187;80;21048;-80
2021/12/23 02:22:12;;;;;;;4.95;4.47;;;;;;;-5.53;76.67;97079.02;1739453;80;20940;-80
2021/12/23 02:24:37;;;;;;;5.92;4.60;;;;;;;-5.56;76.59;97080.38;1737197;80;20984;-80
2021/12/23 02:27:04;;;;;;;5.25;4.40;;;;;;;-5.59;76.56;97075.45;1733088;80;21000;-80
2021/12/23 02:29:30;;;;;;;5.92;4.42;;;;;;;-5.64;76.58;97070.22;1733466;80;21353;-80
2021/12/23 02:31:56;;;;;;;6.78;5.10;;;;;;;-5.69;76.78;97061.57;1731231;80;21036;-80
2021/12/23 02:34:22;;;;;;;6.58;4.70;;;;;;;-5.71;77.04;97062.05;1730655;80;20966;-80
2021/12/23 02:36:55;;;;;;;5.47;4.80;;;;;;;-5.67;77.16;97058.97;1721870;80;21038;-80
2021/12/23 02:39:21;;;;;;;5.15;4.65;;;;;;;-5.66;77.11;97052.58;1728603;80;21340;-80
2021/12/23 02:41:47;;;;;;;5.60;4.55;;;;;;;-5.65;76.85;97051.69;1706579;81;21083;-80
2021/12/23 02:44:13;;;;;;;5.53;5.03;;;;;;;-5.65;76.81;97055.92;1709874;81;21089;-81
2021/12/23 02:46:39;;;;;;;5.28;4.78;;;;;;;-5.62;77.01;97045.22;1739489;80;21076;-80
2021/12/23 02:49:05;;;;;;;4.60;4.08;;;;;;;-5.61;77.11;97045.59;1728454;80;21415;-80
2021/12/23 02:51:31;;;;;;;5.90;4.70;;;;;;;-5.61;77.19;97046.03;1730334;80;21460;-81
2021/12/23 02:53:57;;;;;;;6.87;4.87;;;;;;;-5.56;77.34;97051.71;1707869;80;21392;-80
2021/12/23 02:56:23;;;;;;;15.68;14.00;;;;;;;-5.52;77.19;97052.80;1728083;80;21031;-80
2021/12/23 02:58:49;;;;;;;13.50;10.25;;;;;;;-5.53;76.83;97049.89;1735377;80;21003;-80
2021/12/23 03:01:17;;;;;;;12.03;7.40;;;;;;;-5.59;76.56;97048.88;1734126;79;20983;-80
2021/12/23 03:03:44;;;;;;;6.30;5.00;;;;;;;-5.63;76.63;97047.37;1733348;80;21020;-80
2021/12/23 03:06:10;;;;;;;5.72;4.25;;;;;;;-5.62;76.65;97038.88;1727836;80;21142;-80
2021/12/23 03:08:43;;;;;;;5.17;4.37;;;;;;;-5.63;76.79;97040.22;1742679;80;21106;-80
2021/12/23 03:11:11;;;;;;;;;;;;;;;-5.62;77.02;97036.80;1752430;80;20964;-80
2021/12/23 03:13:37;;;;;;;5.15;4.30;;;;;;;-5.61;77.10;97027.05;1725950;81;20162;-80
2021/12/23 03:16:03;;;;;;;5.05;4.55;;;;;;;-5.63;77.17;97025.03;1728288;80;20972;-80
2021/12/23 03:18:29;;;;;;;6.00;4.47;;;;;;;-5.58;77.46;97014.24;1746088;80;21445;-80
2021/12/23 03:20:55;;;;;;;6.58;5.65;;;;;;;-5.50;77.30;97000.38;1739786;80;21055;-80
2021/12/23 03:23:21;;;;;;;5.28;4.78;;;;;;;-5.42;77.33;97000.02;1725978;80;21039;-80
2021/12/23 03:25:47;;;;;;;5.55;5.05;;;;;;;-5.38;77.36;96998.98;1715715;81;20961;-80
2021/12/23 03:28:13;;;;;;;5.62;4.67;;;;;;;-5.36;77.28;96997.22;1732057;80;21376;-80
2021/12/23 03:30:38;;;;;;;5.45;4.95;;;;;;;-5.36;77.23;96999.76;1724721;80;21097;-80
2021/12/23 03:33:04;;;;;;;5.22;4.72;;;;;;;-5.38;77.13;96997.71;1717230;81;21129;-80
2021/12/23 03:35:30;;;;;;;8.20;5.45;;;;;;;-5.38;77.04;96985.05;1733236;80;21140;-81
2021/12/23 03:37:56;;;;;;;6.30;5.17;;;;;;;-5.33;77.18;96985.68;1732889;80;21009;-81
2021/12/23 03:40:22;;;;;;;4.90;4.45;;;;;;;-5.30;77.02;96979.65;1730452;80;21028;-81
2021/12/23 03:42:49;;;;;;;6.62;4.97;;;;;;;-5.32;76.82;96985.23;1735003;80;21004;-81
2021/12/23 03:45:14;;;;;;;4.87;4.45;;;;;;;-5.34;76.73;96978.98;1717760;80;21031;-81
2021/12/23 03:47:40;;;;;;;6.45;5.20;;;;;;;-5.29;76.70;96973.24;1719032;81;21048;-81
2021/12/23 03:50:06;;;;;;;5.35;4.85;;;;;;;-5.21;76.56;96980.48;1733348;80;21774;-81
2021/12/23 03:52:32;;;;;;;5.28;4.78;;;;;;;-5.17;76.69;96975.66;1731346;80;21014;-81
2021/12/23 03:54:59;;;;;;;5.50;4.50;;;;;;;-5.20;76.48;96977.91;1734734;80;20967;-81
2021/12/23 03:57:25;;;;;;;4.47;4.08;;;;;;;-5.25;76.27;96969.67;1726561;80;21423;-81
2021/12/23 03:59:51;;;;;;;5.62;4.80;;;;;;;-5.27;76.33;96963.86;1707427;81;21007;-81
2021/12/23 04:02:17;;;;;;;14.98;8.28;;;;;;;-5.22;76.08;96972.50;1740767;80;21028;-81
2021/12/23 04:04:43;;;;;;;32.15;19.15;;;;;;;-5.17;76.21;96977.75;1717369;81;21008;-81
2021/12/23 04:07:08;;;;;;;20.25;12.53;;;;;;;-5.22;75.74;96977.56;1745798;80;21436;-81
2021/12/23 04:09:34;;;;;;;14.35;8.63;;;;;;;-5.30;75.29;96975.41;1732234;80;20926;-81
2021/12/23 04:12:00;;;;;;;7.72;6.35;;;;;;;-5.42;75.23;96972.60;1723702;81;21322;-81
2021/12/23 04:14:25;;;;;;;6.45;5.37;;;;;;;-5.42;75.20;96972.60;1732677;80;21015;-81
2021/12/23 04:16:51;;;;;;;5.87;4.87;;;;;;;-5.32;75.60;96963.25;1717347;80;21028;-81
2021/12/23 04:19:17;;;;;;;5.75;5.22;;;;;;;-5.22;75.39;96965.72;1738578;80;21809;-81
2021/12/23 04:21:43;;;;;;;5.55;4.65;;;;;;;-5.06;74.88;96959.94;1735493;80;21462;-81
2021/12/23 04:24:10;;;;;;;7.75;7.05;;;;;;;-4.90;74.81;96962.13;1691585;81;20980;-81
2021/12/23 04:26:38;;;;;;;4.90;4.50;;;;;;;-4.77;74.67;96959.83;1731121;80;21041;-81
2021/12/23 04:29:06;;;;;;;7.22;6.62;;;;;;;-4.59;73.00;96953.42;1725650;80;21052;-81
2021/12/23 04:31:32;;;;;;;5.95;5.40;;;;;;;-4.43;73.48;96948.41;1723953;81;21107;-81
2021/12/23 04:33:57;;;;;;;5.72;5.28;;;;;;;-4.35;73.54;96943.80;1716367;80;21490;-81
2021/12/23 04:36:27;;;;;;;6.03;5.28;;;;;;;-4.26;72.00;96942.05;1741521;80;21097;-81
2021/12/23 04:38:52;;;;;;;7.67;6.85;;;;;;;-4.20;72.06;96934.59;1736509;80;21045;-82
2021/12/23 04:41:18;;;;;;;4.50;4.10;;;;;;;-4.14;72.93;96930.91;1736872;80;21084;-81
2021/12/23 04:43:44;;;;;;;5.40;3.80;;;;;;;-4.11;71.93;96916.80;1730444;80;21040;-81
2021/12/23 04:46:11;;;;;;;4.95;4.55;;;;;;;-4.05;71.94;96922.39;1728005;80;21099;-81
2021/12/23 04:48:37;;;;;;;3.85;3.52;;;;;;;-4.01;72.34;96924.31;1733966;80;20995;-81
2021/12/23 04:51:02;;;;;;;5.55;5.05;;;;;;;-4.04;72.03;96918.13;1714109;80;20986;-81
2021/12/23 04:53:28;;;;;;;7.35;6.75;;;;;;;-4.07;71.95;96915.31;1736149;80;20988;-81
2021/12/23 04:55:55;;;;;;;5.92;5.47;;;;;;;-4.07;71.87;96913.19;1735684;80;21013;-81
2021/12/23 04:58:20;;;;;;;5.97;5.42;;;;;;;-4.11;71.99;96909.18;1696360;82;21302;-82
2021/12/23 05:00:51;;;;;;;8.45;7.72;;;;;;;-4.15;72.20;96914.05;1690319;81;21007;-81
2021/12/23 05:03:17;;;;;;;7.28;6.58;;;;;;;-4.18;72.05;96905.33;1711362;81;21520;-82
2021/12/23 05:05:44;;;;;;;7.28;6.25;;;;;;;-4.20;72.43;96909.67;1716376;81;21431;-81
2021/12/23 05:08:10;;;;;;;6.62;6.10;;;;;;;-4.22;72.20;96902.14;1672680;82;21025;-81
2021/12/23 05:10:36;;;;;;;6.05;5.55;;;;;;;-4.22;72.08;96911.47;1723555;81;20984;-82
2021/12/23 05:13:03;;;;;;;7.55;7.05;;;;;;;-4.21;72.23;96905.50;1707284;80;21033;-81
2021/12/23 05:15:29;;;;;;;5.10;4.62;;;;;;;-4.24;71.95;96900.92;1734219;80;20948;-81
2021/12/23 05:17:57;;;;;;;4.85;4.45;;;;;;;-4.27;71.76;96892.65;1734175;80;21108;-81
2021/12/23 05:20:23;;;;;;;5.25;4.20;;;;;;;-4.28;71.84;96896.91;1727239;81;21220;-81
2021/12/23 05:22:49;;;;;;;6.62;6.00;;;;;;;-4.29;71.75;96887.66;1726416;80;21083;-81
2021/12/23 05:25:15;;;;;;;5.60;5.17;;;;;;;-4.24;72.25;96887.41;1736268;80;21019;-81
2021/12/23 05:27:41;;;;;;;5.80;5.30;;;;;;;-4.25;72.58;96875.17;1734706;80;21478;-81
2021/12/23 05:30:11;;;;;;;6.33;5.72;;;;;;;-4.31;72.43;96872.97;1733965;80;21031;-81
2021/12/23 05:32:37;;;;;;;20.90;18.77;;;;;;;-4.32;72.56;96876.85;1739539;80;23090;-81
2021/12/23 05:35:04;;;;;;;9.05;8.25;;;;;;;-4.32;72.28;96867.52;1733624;80;21110;-81
2021/12/23 05:37:29;;;;;;;20.12;9.80;;;;;;;-4.32;72.25;96864.98;1732640;80;21491;-81
2021/12/23 05:39:55;;;;;;;32.45;15.05;;;;;;;-4.31;72.34;96873.41;1707022;80;21071;-81
2021/12/23 05:42:21;;;;;;;20.20;9.48;;;;;;;-4.31;72.49;96870.42;1729830;80;21081;-81
2021/12/23 05:44:47;;;;;;;26.97;10.68;;;;;;;-4.34;72.33;96868.50;1723923;80;20984;-81
2021/12/23 05:47:12;;;;;;;43.80;18.17;;;;;;;-4.37;72.33;96863.14;1732616;80;21048;-81
2021/12/23 05:49:38;;;;;;;43.45;18.35;;;;;;;-4.35;71.96;96859.25;1734145;80;20988;-81
2021/12/23 05:52:04;;;;;;;23.02;9.88;;;;;;;-4.31;72.31;96867.08;1733875;80;21374;-81
2021/12/23 05:54:30;;;;;;;9.48;4.92;;;;;;;-4.32;71.89;96871.33;1735105;80;21050;-81
2021/12/23 05:57:01;;;;;;;10.63;6.03;;;;;;;-4.31;71.96;96869.16;1728324;80;21039;-81
2021/12/23 05:59:23;;;;;;;9.98;7.12;;;;;;;-4.28;72.17;96856.31;1698615;81;21449;-81
2021/12/23 06:01:49;;;;;;;8.58;5.92;;;;;;;-4.28;72.15;96850.42;1734379;81;21059;-81
2021/12/23 06:04:15;;;;;;;5.03;4.53;;;;;;;-4.27;72.28;96843.17;1735376;80;21055;-81
2021/12/23 06:06:40;;;;;;;6.92;6.28;;;;;;;-4.26;72.15;96835.93;1721021;81;21017;-81
2021/12/23 06:09:06;;;;;;;12.15;6.87;;;;;;;-4.26;72.35;96831.67;1720057;81;20980;-81
2021/12/23 06:11:31;;;;;;;5.60;4.37;;;;;;;-4.26;72.45;96830.41;1728829;80;21519;-82
2021/12/23 06:13:57;;;;;;;47.10;15.70;;;;;;;-4.26;72.49;96830.41;1713845;80;20973;-81
2021/12/23 06:16:23;;;;;;;216.35;71.85;;;;;;;-4.24;72.81;96836.22;1737542;80;21081;-81
2021/12/23 06:18:50;;;;;;;109.67;32.25;;;;;;;-4.22;72.53;96837.88;1737357;80;21052;-81
2021/12/23 06:21:16;;;;;;;32.03;10.72;;;;;;;-4.24;72.67;96843.83;1713708;81;21398;-81
2021/12/23 06:23:41;;;;;;;4.80;4.35;;;;;;;-4.23;72.12;96837.06;1680520;82;21098;-81
2021/12/23 06:26:07;;;;;;;16.50;7.42;;;;;;;-4.21;72.44;96825.11;1706616;81;21071;-81
2021/12/23 06:28:34;;;;;;;35.48;12.25;;;;;;;-4.20;72.65;96826.75;1671635;82;21052;-81
2021/12/23 06:31:00;;;;;;;81.37;31.35;;;;;;;-4.18;72.42;96830.47;1684218;83;21019;-81
2021/12/23 06:33:26;;;;;;;84.30;29.42;;;;;;;-4.18;72.25;96827.94;1678606;83;21127;-82
2021/12/23 06:35:52;;;;;;;29.77;10.28;;;;;;;-4.18;72.11;96819.88;1715146;82;21049;-81
2021/12/23 06:38:18;;;;;;;9.83;6.22;;;;;;;-4.17;72.37;96826.58;1697690;82;21063;-81
2021/12/23 06:40:43;;;;;;;13.68;6.42;;;;;;;-4.15;72.59;96834.11;1712326;81;21010;-81
2021/12/23 06:43:09;;;;;;;10.23;7.05;;;;;;;-4.18;72.74;96826.22;1724652;81;20990;-81
2021/12/23 06:45:35;;;;;;;12.93;6.47;;;;;;;-4.18;72.67;96829.20;1718077;81;21097;-81
2021/12/23 06:48:00;;;;;;;6.10;5.53;;;;;;;-4.18;72.56;96824.13;1735958;80;21113;-81
2021/12/23 06:50:26;;;;;;;8.15;6.35;;;;;;;-4.16;72.74;96824.86;1701530;81;22257;-81
2021/12/23 06:55:18;;;;;;;12.00;7.35;;;;;;;-4.11;72.64;96816.55;1741537;80;21521;-81
2021/12/23 06:57:44;;;;;;;104.53;29.75;;;;;;;-4.09;72.54;96815.56;1741745;80;21071;-81
2021/12/23 07:00:15;;;;;;;34.88;12.35;;;;;;;-4.07;72.69;96816.75;1715438;80;21515;-82
2021/12/23 07:02:42;;;;;;;29.55;11.53;;;;;;;-4.07;72.51;96816.75;1726135;80;21089;-81
2021/12/23 07:05:08;;;;;;;68.80;23.98;;;;;;;-4.06;72.69;96822.22;1729382;80;21067;-82
2021/12/23 07:07:50;;;;;;;29.77;11.97;;;;;;;-4.06;72.70;96814.16;1710984;80;21105;-81
2021/12/23 07:10:09;;;;;;;18.75;9.53;;;;;;;-4.06;72.51;96814.61;1734969;80;21056;-81
2021/12/23 07:12:35;;;;;;;34.80;17.57;;;;;;;-4.08;72.18;96812.58;1732093;80;21082;-82
2021/12/23 07:15:00;;;;;;;106.47;41.68;;;;;;;-4.11;72.37;96814.83;1732497;81;20997;-81
2021/12/23 07:17:27;;;;;;;121.47;36.58;;;;;;;-4.12;72.57;96804.76;1727785;81;21125;-82
2021/12/23 07:19:53;;;;;;;29.80;12.55;;;;;;;-4.11;72.78;96808.94;1730486;80;21028;-83
2021/12/23 07:22:19;;;;;;;30.08;13.10;;;;;;;-4.11;72.59;96806.39;1736857;81;21370;-83
2021/12/23 07:24:45;;;;;;;23.05;16.55;;;;;;;-4.11;72.45;96803.86;1740382;80;21017;-82
2021/12/23 07:27:11;;;;;;;39.38;26.70;;;;;;;-4.11;72.64;96805.13;1741136;80;21017;-83
2021/12/23 07:29:37;;;;;;;32.42;13.85;;;;;;;-4.06;72.80;96794.30;1732172;81;21079;-81
2021/12/23 07:32:05;;;;;;;13.98;9.43;;;;;;;-4.01;72.80;96798.22;1741235;80;21111;-81
2021/12/23 07:34:31;;;;;;;12.43;9.08;;;;;;;-3.94;72.81;96789.81;1746883;80;21051;-81
2021/12/23 07:36:57;;;;;;;10.88;9.28;;;;;;;-3.87;72.34;96797.94;1737874;81;21161;-83
2021/12/23 07:39:23;;;;;;;12.35;11.10;;;;;;;-3.89;72.12;96797.20;1751554;80;21051;-82
2021/12/23 07:41:49;;;;;;;14.65;10.95;;;;;;;-3.89;71.96;96790.41;1726774;81;21396;-81
2021/12/23 07:44:20;;;;;;;12.40;8.90;;;;;;;-3.85;72.01;96784.25;1752297;81;21055;-81
2021/12/23 07:46:48;;;;;;;29.40;14.18;;;;;;;-3.82;72.04;96784.53;1750614;80;21369;-81
2021/12/23 07:49:16;;;;;;;15.95;9.80;;;;;;;-3.78;72.23;96783.45;1735239;80;21363;-81
2021/12/23 07:51:42;;;;;;;12.20;8.20;;;;;;;-3.74;72.20;96784.94;1747064;80;20996;-82
2021/12/23 07:54:08;;;;;;;15.63;8.55;;;;;;;-3.72;72.35;96778.88;1736512;80;21375;-82
2021/12/23 07:56:34;;;;;;;13.18;8.90;;;;;;;-3.70;72.09;96774.52;1751404;80;21328;-82
2021/12/23 07:59:00;;;;;;;16.30;9.95;;;;;;;-3.69;72.25;96770.27;1721230;82;20984;-82
2021/12/23 08:01:26;;;;;;;18.25;9.85;;;;;;;-3.67;72.51;96774.34;1731069;82;21294;-81
2021/12/23 08:03:52;;;;;;;28.25;13.28;;;;;;;-3.65;72.62;96759.02;1724506;82;21133;-82
2021/12/23 08:06:17;;;;;;;12.98;9.30;;;;;;;-3.57;72.32;96764.95;1752444;80;21064;-82
2021/12/23 08:08:43;;;;;;;13.68;8.45;;;;;;;-3.53;72.39;96772.77;1718896;81;21446;-82
2021/12/23 08:11:09;;;;;;;18.37;12.88;;;;;;;-3.49;72.10;96764.06;1726662;81;21028;-82
2021/12/23 08:13:35;;;;;;;18.37;10.63;;;;;;;-3.45;72.56;96765.06;1728476;81;21055;-82
2021/12/23 08:16:01;;;;;;;8.48;6.95;;;;;;;-3.41;72.33;96760.20;1737987;80;21002;-82
2021/12/23 08:18:29;;;;;;;23.65;12.40;;;;;;;-3.40;71.48;96756.75;1728374;80;21053;-82
2021/12/23 08:20:55;;;;;;;35.33;15.13;;;;;;;-3.45;72.02;96751.55;1725538;80;21065;-82
2021/12/23 08:23:20;;;;;;;13.20;8.80;;;;;;;-3.44;72.13;96750.19;1738863;81;21058;-82
2021/12/23 08:25:47;;;;;;;14.60;10.05;;;;;;;-3.42;71.96;96748.41;1734558;81;21031;-82
2021/12/23 08:28:12;;;;;;;10.53;7.60;;;;;;;-3.40;72.19;96758.02;1738212;80;21303;-82
2021/12/23 08:30:40;;;;;;;8.73;7.87;;;;;;;-3.37;72.13;96753.22;1712739;80;21049;-82
2021/12/23 08:33:07;;;;;;;9.78;8.33;;;;;;;-3.33;71.73;96744.51;1745035;80;21008;-82
2021/12/23 08:35:33;;;;;;;12.15;7.25;;;;;;;-3.25;72.35;96724.57;1731961;80;21015;-82
2021/12/23 08:37:59;;;;;;;10.60;6.85;;;;;;;-3.19;71.73;96725.47;1712533;81;21047;-82
2021/12/23 08:40:26;;;;;;;11.03;7.25;;;;;;;-3.19;71.51;96721.66;1707814;81;21009;-82
2021/12/23 08:42:52;;;;;;;8.83;6.22;;;;;;;-3.19;71.63;96708.95;1731246;81;21020;-82
2021/12/23 08:45:18;;;;;;;10.38;7.08;;;;;;;-3.14;71.02;96705.67;1707784;82;21031;-82
2021/12/23 08:47:45;;;;;;;8.73;7.35;;;;;;;-3.09;71.31;96710.52;1740628;80;21059;-82
2021/12/23 08:50:11;;;;;;;11.18;7.85;;;;;;;-3.08;71.07;96711.69;1733151;82;21015;-82
2021/12/23 08:52:37;;;;;;;11.12;8.25;;;;;;;-3.07;71.21;96715.05;1736356;81;21042;-82
2021/12/23 08:55:05;;;;;;;14.00;9.30;;;;;;;-3.03;71.16;96707.15;1722529;81;21125;-82
2021/12/23 08:57:30;;;;;;;10.85;8.80;;;;;;;-2.95;71.26;96713.03;1740431;81;21091;-81
2021/12/23 08:59:56;;;;;;;11.40;8.00;;;;;;;-2.89;71.29;96716.96;1750898;79;21420;-81
2021/12/23 09:02:22;;;;;;;9.75;7.05;;;;;;;-2.83;70.75;96719.12;1742617;80;21106;-82
2021/12/23 09:04:47;;;;;;;9.78;7.00;;;;;;;-2.80;70.35;96713.40;1731894;81;21073;-81
2021/12/23 09:07:13;;;;;;;10.23;7.47;;;;;;;-2.75;70.81;96695.34;1717958;81;21063;-82
2021/12/23 09:09:39;;;;;;;10.13;7.53;;;;;;;-2.65;70.85;96696.41;1689372;83;21036;-81
2021/12/23 09:12:07;;;;;;;9.98;7.70;;;;;;;-2.56;70.18;96680.59;1652921;84;21072;-81
2021/12/23 09:14:33;;;;;;;12.95;8.43;;;;;;;-2.51;70.54;96667.12;1725534;82;21004;-81
2021/12/23 09:17:02;;;;;;;9.55;6.75;;;;;;;-2.44;70.73;96666.31;1730590;82;21415;-83
2021/12/23 09:19:28;;;;;;;12.05;8.45;;;;;;;-2.39;70.08;96663.47;1722080;82;20968;-82
2021/12/23 09:21:54;;;;;;;12.73;7.85;;;;;;;-2.35;70.34;96661.91;1734112;80;21856;-81
2021/12/23 09:24:20;;;;;;;37.23;17.02;;;;;;;-2.30;70.37;96652.24;1730491;82;20999;-82
2021/12/23 09:26:53;;;;;;;16.12;9.83;;;;;;;-2.23;70.77;96640.78;1743723;81;21002;-81
2021/12/23 09:32:39;;;;;;;11.97;8.95;;;;;;;-2.11;70.48;96644.29;1731963;81;21479;-81
2021/12/23 09:34:26;;;;;;;28.35;15.88;;;;;;;-2.01;69.37;96620.31;1727922;81;21449;-82
2021/12/23 09:36:52;;;;;;;47.13;23.38;;;;;;;-1.99;70.16;96633.30;1719601;82;21128;-82
2021/12/23 09:39:17;;;;;;;24.43;11.63;;;;;;;-1.93;70.38;96634.20;1716650;82;21052;-82
2021/12/23 09:41:45;;;;;;;24.67;14.38;;;;;;;-1.89;69.84;96617.80;1727790;80;21037;-82
2021/12/23 09:44:11;;;;;;;16.52;11.10;;;;;;;-1.88;69.65;96624.98;1729508;81;20993;-81
2021/12/23 09:46:38;;;;;;;22.52;11.43;;;;;;;-1.88;69.55;96624.52;1730574;81;21020;-81
2021/12/23 09:49:04;;;;;;;49.85;28.92;;;;;;;-1.88;69.46;96607.15;1728919;80;21015;-81
2021/12/23 09:51:30;;;;;;;16.07;11.80;;;;;;;-1.91;69.49;96601.80;1741806;80;21303;-81
2021/12/23 09:54:03;;;;;;;7.72;6.72;;;;;;;-1.97;68.87;96602.17;1730608;82;21032;-81
2021/12/23 09:56:30;;;;;;;17.62;11.18;;;;;;;-2.00;69.16;96591.38;1728625;80;21105;-81
2021/12/23 09:58:57;;;;;;;11.25;8.10;;;;;;;-2.00;69.41;96583.74;1723193;80;21115;-82
2021/12/23 10:01:26;;;;;;;18.92;13.53;;;;;;;-1.97;69.71;96579.72;1724973;81;21455;-81
2021/12/23 10:03:52;;;;;;;12.93;9.53;;;;;;;-1.94;70.50;96575.27;1736249;80;21139;-84
2021/12/23 10:06:18;;;;;;;21.40;18.77;;;;;;;-1.86;70.55;96565.38;1708868;82;21453;-81
2021/12/23 10:08:44;;;;;;;18.42;12.75;;;;;;;-1.82;69.72;96562.98;1733822;81;21015;-81
2021/12/23 10:30:54;;;;;;;;;;;;;;;;;;;;;
2021/12/23 10:33:32;;;;;;;15.32;12.68;;;;;;;-1.57;69.46;96516.77;1676357;81;21093;-80
2021/12/23 10:38:48;;;;;;;25.37;12.43;;;;;;;-1.50;68.92;96496.31;1734255;80;21081;-81
2021/12/23 10:41:23;;;;;;;11.40;7.83;;;;;;;-1.45;68.45;96490.92;1738012;79;21036;-80
2021/12/23 10:43:56;;;;;;;17.67;12.13;;;;;;;-1.45;68.50;96485.83;1731409;80;21023;-80
2021/12/23 10:46:27;;;;;;;41.85;21.00;;;;;;;-1.43;68.65;96463.13;1742271;80;21024;-80
2021/12/23 10:49:14;;;;;;;20.88;11.60;;;;;;;-1.39;68.95;96463.27;1729785;80;21038;-81
2021/12/23 10:51:26;;;;;;;14.73;11.12;;;;;;;-1.38;69.19;96448.33;1726580;80;21412;-80
2021/12/23 10:54:22;;;;;;;11.30;8.85;;;;;;;-1.36;68.22;96434.19;1737835;80;21142;-81
2021/12/23 10:59:24;;;;;;;45.65;22.55;;;;;;;-1.42;69.16;96420.61;1734598;81;21028;-80
2021/12/23 11:02:16;;;;;;;27.37;19.62;;;;;;;-1.42;69.10;96402.77;1723364;81;21003;-81
2021/12/23 11:07:50;;;;;;;22.75;13.25;;;;;;;-1.39;68.28;96381.70;1735001;80;21008;-81
2021/12/23 11:10:23;;;;;;;10.00;6.75;;;;;;;-1.34;68.95;96381.37;1726319;81;21046;-81
2021/12/23 11:30:05;;;;;;;17.25;11.05;;;;;;;-1.13;68.36;96362.48;1714988;82;21075;-82
2021/12/23 11:40:12;;;;;;;12.53;10.35;;;;;;;-1.12;68.16;96349.61;1729322;80;21062;-82
2021/12/23 11:43:02;;;;;;;12.25;10.45;;;;;;;-1.12;68.45;96326.66;1728824;80;21027;-82
2021/12/23 11:45:08;;;;;;;11.40;9.10;;;;;;;-1.12;68.27;96328.41;1678695;81;21083;-82
2021/12/23 11:47:34;;;;;;;16.82;11.95;;;;;;;-1.10;68.32;96322.73;1680349;82;21070;-82
2021/12/23 11:50:00;;;;;;;13.25;9.60;;;;;;;-1.07;68.09;96323.77;1732819;80;21437;-82
2021/12/23 11:52:26;;;;;;;11.73;9.43;;;;;;;-1.08;68.07;96311.48;1729707;81;21000;-82
2021/12/23 11:54:52;;;;;;;16.87;12.78;;;;;;;-1.09;68.00;96303.48;1726389;80;20950;-82
2021/12/23 11:57:28;;;;;;;14.05;9.18;;;;;;;-1.05;68.87;96296.42;1730003;81;21339;-82
2021/12/23 12:00:31;;;;;;;10.45;7.47;;;;;;;-1.03;68.10;96284.36;1721836;80;20956;-82
2021/12/23 12:02:25;;;;;;;11.85;8.35;;;;;;;-0.99;68.32;96285.75;1710968;82;21023;-82
2021/12/23 12:04:59;;;;;;;13.53;10.23;;;;;;;-1.00;67.99;96275.20;1738165;81;21090;-82
2021/12/23 12:07:25;;;;;;;16.25;11.53;;;;;;;-1.02;68.57;96283.44;1733374;81;21042;-82
2021/12/23 12:10:09;;;;;;;14.40;10.55;;;;;;;-0.97;67.64;96285.20;1732223;81;20998;-82
2021/12/23 12:12:38;;;;;;;11.97;9.28;;;;;;;-0.98;68.14;96271.64;1706614;82;21392;-82
2021/12/23 12:15:05;;;;;;;12.13;8.95;;;;;;;-0.94;67.94;96271.76;1700068;81;21028;-82
2021/12/23 12:17:36;;;;;;;14.28;10.13;;;;;;;-0.93;68.16;96278.48;1731134;81;21387;-83
2021/12/23 12:20:37;;;;;;;13.58;11.28;;;;;;;-0.91;68.63;96279.64;1732929;80;21066;-85
2021/12/23 12:23:10;;;;;;;10.15;7.70;;;;;;;-0.87;68.53;96278.48;1719759;81;21094;-87
2021/12/23 12:56:27;;;;;;;12.80;11.45;;;;;;;-0.95;67.78;96251.01;1451052;96;21173;-87
2021/12/23 12:59:27;;;;;;;17.90;12.93;;;;;;;-0.97;67.57;96244.40;1439513;96;21178;-86
2021/12/23 13:28:54;;;;;;;11.50;8.48;;;;;;;-1.14;67.95;96182.34;1724728;82;21134;-86